createdAt,value
2023-03-29T00:02:13.268Z,98026.56
2023-03-29T00:04:40.784Z,98027.70
2023-03-29T00:07:08.279Z,98025.59
2023-03-29T00:09:35.267Z,98024.86
2023-03-29T00:12:03.266Z,98025.02
2023-03-29T00:14:30.961Z,98028.47
2023-03-29T00:16:58.682Z,98026.14
2023-03-29T00:19:25.975Z,98027.41
2023-03-29T00:21:53.057Z,98036.73
2023-03-29T00:24:20.750Z,98032.50
2023-03-29T00:26:48.134Z,98031.52
2023-03-29T00:29:15.511Z,98031.09
2023-03-29T00:31:45.398Z,98027.46
2023-03-29T00:34:12.445Z,98026.75
2023-03-29T00:36:39.822Z,98019.38
2023-03-29T00:39:07.729Z,98021.92
2023-03-29T00:41:35.388Z,98025.17
2023-03-29T00:44:04.351Z,98031.65
2023-03-29T00:46:34.248Z,98036.69
2023-03-29T00:49:08.201Z,98041.59
2023-03-29T00:51:37.959Z,98044.08
2023-03-29T00:54:14.079Z,98042.36
2023-03-29T00:56:43.862Z,98044.08
2023-03-29T00:59:22.284Z,98047.36
2023-03-29T01:02:02.913Z,98048.47
2023-03-29T01:04:59.848Z,98049.23
2023-03-29T01:07:57.550Z,98053.55
2023-03-29T01:10:40.079Z,98052.27
2023-03-29T01:13:38.885Z,98056.55
2023-03-29T01:16:10.057Z,98054.42
2023-03-29T01:18:38.070Z,98051.73
2023-03-29T01:21:43.639Z,98056.48
2023-03-29T01:24:10.600Z,98056.58
2023-03-29T01:26:51.462Z,98053.06
2023-03-29T01:29:41.514Z,98053.19
2023-03-29T01:32:13.407Z,98056.03
2023-03-29T01:34:48.386Z,98054.17
2023-03-29T01:37:28.341Z,98053.88
2023-03-29T01:39:55.186Z,98061.80
2023-03-29T01:42:39.736Z,98066.66
2023-03-29T01:45:21.349Z,98060.94
2023-03-29T01:48:00.536Z,98065.38
2023-03-29T01:50:40.050Z,98061.69
2023-03-29T01:53:24.158Z,98063.23
2023-03-29T01:56:05.116Z,98066.33
2023-03-29T01:58:36.144Z,98070.68
2023-03-29T02:01:09.253Z,98067.82
2023-03-29T02:03:41.715Z,98064.27
2023-03-29T02:06:12.554Z,98067.13
2023-03-29T02:08:41.126Z,98067.66
2023-03-29T02:11:08.655Z,98061.38
2023-03-29T02:13:36.261Z,98066.23
2023-03-29T02:16:08.909Z,98073.13
2023-03-29T02:18:35.760Z,98072.70
2023-03-29T02:21:03.065Z,98071.07
2023-03-29T02:23:34.814Z,98071.60
2023-03-29T02:26:03.322Z,98071.95
2023-03-29T02:28:31.216Z,98077.49
2023-03-29T02:31:47.341Z,98072.86
2023-03-29T02:34:26.195Z,98072.55
2023-03-29T02:36:58.288Z,98080.64
2023-03-29T02:39:28.985Z,98090.27
2023-03-29T02:41:56.622Z,98086.80
2023-03-29T02:44:27.262Z,98090.44
2023-03-29T02:46:58.574Z,98098.98
2023-03-29T02:49:25.601Z,98105.10
2023-03-29T02:51:55.485Z,98101.38
2023-03-29T02:54:25.981Z,98102.98
2023-03-29T02:56:59.322Z,98102.67
2023-03-29T02:59:26.768Z,98110.77
2023-03-29T03:01:53.957Z,98114.71
2023-03-29T03:04:21.669Z,98112.92
2023-03-29T03:06:49.058Z,98107.77
2023-03-29T03:09:16.585Z,98116.06
2023-03-29T03:11:45.256Z,98118.56
2023-03-29T03:14:12.344Z,98116.25
2023-03-29T03:16:39.444Z,98113.84
2023-03-29T03:19:06.884Z,98118.50
2023-03-29T03:21:34.542Z,98124.31
2023-03-29T03:24:01.421Z,98123.52
2023-03-29T03:26:29.387Z,98125.64
2023-03-29T03:28:56.891Z,98125.80
2023-03-29T03:31:54.168Z,98133.63
2023-03-29T03:34:40.152Z,98138.29
2023-03-29T03:37:07.250Z,98137.13
2023-03-29T03:39:34.830Z,98139.39
2023-03-29T03:42:05.858Z,98140.02
2023-03-29T03:44:38.893Z,98147.98
2023-03-29T03:47:16.338Z,98144.29
2023-03-29T03:49:43.385Z,98146.98
2023-03-29T03:52:11.322Z,98148.36
2023-03-29T03:54:38.486Z,98150.98
2023-03-29T03:57:32.571Z,98152.00
2023-03-29T03:59:59.619Z,98157.63
2023-03-29T04:02:39.902Z,98160.33
2023-03-29T04:05:08.244Z,98158.92
2023-03-29T04:07:38.163Z,98169.23
2023-03-29T04:10:20.911Z,98168.13
2023-03-29T04:12:56.205Z,98167.77
2023-03-29T04:15:23.474Z,98167.67
2023-03-29T04:18:00.097Z,98170.71
2023-03-29T04:20:34.079Z,98170.69
2023-03-29T04:23:01.315Z,98175.84
2023-03-29T04:25:28.961Z,98175.02
2023-03-29T04:28:15.917Z,98179.79
2023-03-29T04:30:53.795Z,98183.94
2023-03-29T04:33:40.773Z,98183.36
2023-03-29T04:36:08.914Z,98181.84
2023-03-29T04:38:37.370Z,98187.88
2023-03-29T04:41:04.801Z,98194.05
2023-03-29T04:44:06.288Z,98199.32
2023-03-29T04:46:34.268Z,98205.73
2023-03-29T04:49:05.524Z,98208.96
2023-03-29T04:51:38.956Z,98212.19
2023-03-29T04:54:06.183Z,98211.69
2023-03-29T04:56:43.479Z,98214.95
2023-03-29T04:59:39.598Z,98217.94
2023-03-29T05:02:25.066Z,98221.45
2023-03-29T05:04:52.450Z,98223.36
2023-03-29T05:07:19.401Z,98227.60
2023-03-29T05:09:47.009Z,98227.98
2023-03-29T05:12:14.132Z,98230.75
2023-03-29T05:14:54.016Z,98236.73
2023-03-29T05:17:31.244Z,98238.28
2023-03-29T05:20:09.209Z,98240.91
2023-03-29T05:22:37.708Z,98242.40
2023-03-29T05:25:08.310Z,98242.21
2023-03-29T05:27:45.161Z,98241.72
2023-03-29T05:30:14.711Z,98239.11
2023-03-29T05:32:50.421Z,98239.69
2023-03-29T05:35:29.524Z,98245.48
2023-03-29T05:37:57.631Z,98244.84
2023-03-29T05:40:25.679Z,98250.14
2023-03-29T05:43:14.780Z,98252.27
2023-03-29T05:45:41.817Z,98250.77
2023-03-29T05:48:10.172Z,98247.94
2023-03-29T05:50:39.465Z,98252.13
2023-03-29T05:53:07.573Z,98246.27
2023-03-29T05:55:34.685Z,98258.58
2023-03-29T05:58:01.690Z,98260.17
2023-03-29T06:00:33.859Z,98261.68
2023-03-29T06:03:21.528Z,98257.07
2023-03-29T06:06:04.548Z,98258.36
2023-03-29T06:08:34.605Z,98266.57
2023-03-29T06:11:23.880Z,98266.28
2023-03-29T06:14:13.046Z,98271.92
2023-03-29T06:16:44.467Z,98276.90
2023-03-29T06:19:12.282Z,98275.30
2023-03-29T06:21:40.617Z,98273.08
2023-03-29T06:24:09.584Z,98278.76
2023-03-29T06:26:42.884Z,98277.27
2023-03-29T06:29:12.399Z,98273.40
2023-03-29T06:31:40.297Z,98281.83
2023-03-29T06:34:08.337Z,98276.36
2023-03-29T06:36:55.899Z,98286.25
2023-03-29T06:39:24.970Z,98294.23
2023-03-29T06:42:20.779Z,98290.27
2023-03-29T06:45:08.252Z,98295.73
2023-03-29T06:47:36.591Z,98308.62
2023-03-29T06:50:03.881Z,98309.89
2023-03-29T06:52:45.819Z,98303.32
2023-03-29T06:55:13.760Z,98306.41
2023-03-29T06:57:49.720Z,98308.80
2023-03-29T07:00:37.169Z,98311.64
2023-03-29T07:03:29.480Z,98306.71
2023-03-29T07:06:10.899Z,98308.09
2023-03-29T07:08:46.276Z,98307.62
2023-03-29T07:11:30.921Z,98313.95
2023-03-29T07:14:05.293Z,98309.91
2023-03-29T07:16:32.917Z,98302.37
2023-03-29T07:19:25.558Z,98311.77
2023-03-29T07:22:17.162Z,98309.33
2023-03-29T07:24:55.277Z,98316.92
2023-03-29T07:27:27.785Z,98313.46
2023-03-29T07:29:58.781Z,98309.46
2023-03-29T07:32:29.850Z,98315.98
2023-03-29T07:35:13.214Z,98323.38
2023-03-29T07:37:45.779Z,98327.77
2023-03-29T07:40:27.324Z,98330.04
2023-03-29T07:43:00.476Z,98317.54
2023-03-29T07:45:42.484Z,98332.50
2023-03-29T07:48:16.218Z,98324.77
2023-03-29T07:51:17.800Z,98325.58
2023-03-29T07:53:51.809Z,98318.95
2023-03-29T07:56:36.231Z,98334.49
2023-03-29T07:59:14.736Z,98329.46
2023-03-29T08:01:46.197Z,98331.54
2023-03-29T08:04:26.923Z,98332.51
2023-03-29T08:07:20.518Z,98325.94
2023-03-29T08:10:18.948Z,98329.48
2023-03-29T08:13:13.542Z,98334.80
2023-03-29T08:15:51.843Z,98343.69
2023-03-29T08:18:28.536Z,98345.83
2023-03-29T08:20:58.245Z,98350.08
2023-03-29T08:23:36.403Z,98349.48
2023-03-29T08:26:25.497Z,98348.84
2023-03-29T08:28:54.890Z,98351.81
2023-03-29T08:31:24.173Z,98347.30
2023-03-29T08:33:53.521Z,98337.27
2023-03-29T08:36:59.826Z,98352.54
2023-03-29T08:39:47.215Z,98341.29
2023-03-29T08:43:02.062Z,98342.81
2023-03-29T08:46:18.087Z,98353.62
2023-03-29T08:49:02.867Z,98352.35
2023-03-29T08:52:07.069Z,98349.77
2023-03-29T08:54:44.483Z,98355.44
2023-03-29T08:57:43.535Z,98348.34
2023-03-29T09:00:39.548Z,98348.65
2023-03-29T09:03:21.002Z,98354.88
2023-03-29T09:06:12.805Z,98350.69
2023-03-29T09:08:48.042Z,98345.56
2023-03-29T09:11:54.409Z,98345.45
2023-03-29T09:15:02.130Z,98351.32
2023-03-29T09:18:03.575Z,98355.42
2023-03-29T09:21:17.209Z,98356.90
2023-03-29T09:24:16.514Z,98356.33
2023-03-29T09:27:05.266Z,98351.29
2023-03-29T09:30:00.073Z,98352.08
2023-03-29T09:32:58.381Z,98361.42
2023-03-29T09:36:02.550Z,98357.88
2023-03-29T09:38:31.595Z,98353.81
2023-03-29T09:41:07.265Z,98352.18
2023-03-29T09:43:40.839Z,98342.27
2023-03-29T09:46:19.485Z,98340.74
2023-03-29T09:48:49.334Z,98347.70
2023-03-29T09:51:20.328Z,98340.10
2023-03-29T09:53:48.976Z,98344.52
2023-03-29T09:56:34.622Z,98343.33
2023-03-29T09:59:12.151Z,98341.72
2023-03-29T10:01:44.616Z,98340.38
2023-03-29T10:04:13.311Z,98336.91
2023-03-29T10:06:53.172Z,98342.44
2023-03-29T10:09:24.137Z,98339.80
2023-03-29T10:11:58.024Z,98331.54
2023-03-29T10:14:42.777Z,98338.54
2023-03-29T10:17:14.101Z,98342.02
2023-03-29T10:19:57.714Z,98334.05
2023-03-29T10:22:41.886Z,98337.46
2023-03-29T10:25:13.196Z,98330.77
2023-03-29T10:27:43.168Z,98324.90
2023-03-29T10:30:18.238Z,98340.86
2023-03-29T10:32:45.824Z,98331.68
2023-03-29T10:35:25.575Z,98331.48
2023-03-29T10:37:55.751Z,98332.29
2023-03-29T10:40:32.698Z,98327.71
2023-03-29T10:43:24.048Z,98334.05
2023-03-29T10:45:57.856Z,98333.58
2023-03-29T10:48:29.851Z,98333.48
2023-03-29T10:51:01.678Z,98330.20
2023-03-29T10:53:33.676Z,98327.27
2023-03-29T10:56:13.758Z,98324.27
2023-03-29T10:59:02.920Z,98328.05
2023-03-29T11:01:52.714Z,98325.17
2023-03-29T11:04:51.825Z,98319.05
2023-03-29T11:07:47.964Z,98317.15
2023-03-29T11:10:49.204Z,98317.52
2023-03-29T11:13:37.496Z,98308.23
2023-03-29T11:16:23.057Z,98307.59
2023-03-29T11:19:37.891Z,98303.05
2023-03-29T11:22:26.216Z,98298.39
2023-03-29T11:24:55.894Z,98294.92
2023-03-29T11:27:44.263Z,98290.20
2023-03-29T11:30:56.480Z,98273.33
2023-03-29T11:33:23.710Z,98285.88
2023-03-29T11:36:09.733Z,98287.75
2023-03-29T11:38:51.813Z,98287.92
2023-03-29T11:41:20.223Z,98281.48
2023-03-29T11:43:55.732Z,98277.63
2023-03-29T11:46:28.255Z,98287.03
2023-03-29T11:49:04.191Z,98281.52
2023-03-29T11:52:13.650Z,98282.32
2023-03-29T11:55:06.585Z,98286.95
2023-03-29T11:57:52.110Z,98279.06
2023-03-29T12:00:31.807Z,98274.55
2023-03-29T12:03:12.468Z,98280.08
2023-03-29T12:05:47.736Z,98274.79
2023-03-29T12:08:29.106Z,98275.96
2023-03-29T12:10:59.455Z,98260.44
2023-03-29T12:14:04.952Z,98282.33
2023-03-29T12:16:44.267Z,98281.30
2023-03-29T12:19:35.359Z,98289.09
2023-03-29T12:22:07.285Z,98288.64
2023-03-29T12:24:40.669Z,98289.73
2023-03-29T12:27:31.355Z,98288.10
2023-03-29T12:30:21.092Z,98295.83
2023-03-29T12:33:17.874Z,98301.38
2023-03-29T12:36:09.176Z,98292.89
2023-03-29T12:39:02.116Z,98294.70
2023-03-29T12:41:51.310Z,98295.71
2023-03-29T12:44:44.924Z,98294.80
2023-03-29T12:47:24.092Z,98292.90
2023-03-29T12:49:56.029Z,98289.12
2023-03-29T12:52:41.283Z,98298.11
2023-03-29T12:55:40.000Z,98290.92
2023-03-29T12:58:21.029Z,98281.50
2023-03-29T13:01:14.066Z,98281.98
2023-03-29T13:03:48.915Z,98275.56
2023-03-29T13:06:51.028Z,98276.51
2023-03-29T13:09:21.567Z,98278.39
2023-03-29T13:11:53.190Z,98279.16
2023-03-29T13:14:24.012Z,98278.71
2023-03-29T13:16:51.604Z,98278.05
2023-03-29T13:19:32.892Z,98274.27
2023-03-29T13:22:25.601Z,98274.26
2023-03-29T13:25:05.555Z,98271.31
2023-03-29T13:27:39.118Z,98271.34
2023-03-29T13:30:20.319Z,98271.59
2023-03-29T13:32:55.464Z,98278.56
2023-03-29T13:35:41.477Z,98271.02
2023-03-29T13:38:27.946Z,98273.92
2023-03-29T13:41:01.728Z,98267.45
2023-03-29T13:43:30.830Z,98264.45
2023-03-29T13:45:57.799Z,98261.02
2023-03-29T13:48:26.614Z,98266.06
2023-03-29T13:50:57.037Z,98265.77
2023-03-29T13:53:31.065Z,98254.20
2023-03-29T13:55:59.047Z,98257.23
2023-03-29T13:58:42.833Z,98260.63
2023-03-29T14:01:28.595Z,98262.17
2023-03-29T14:03:57.010Z,98258.02
2023-03-29T14:06:31.104Z,98256.75
2023-03-29T14:09:03.065Z,98252.26
2023-03-29T14:11:30.633Z,98255.13
2023-03-29T14:14:00.157Z,98253.92
2023-03-29T14:16:31.126Z,98259.61
2023-03-29T14:19:14.149Z,98249.75
2023-03-29T14:21:43.530Z,98253.23
2023-03-29T14:24:16.770Z,98258.04
2023-03-29T14:26:46.653Z,98257.96
2023-03-29T14:29:14.163Z,98257.85
2023-03-29T14:31:42.112Z,98263.04
2023-03-29T14:34:17.999Z,98263.23
2023-03-29T14:36:48.344Z,98263.67
2023-03-29T14:39:19.828Z,98261.76
2023-03-29T14:41:52.404Z,98259.27
2023-03-29T14:44:26.863Z,98258.84
2023-03-29T14:46:55.410Z,98257.91
2023-03-29T14:49:24.068Z,98258.41
2023-03-29T14:51:52.634Z,98249.86
2023-03-29T14:54:24.996Z,98255.95
2023-03-29T14:56:53.283Z,98259.55
2023-03-29T14:59:25.312Z,98263.30
2023-03-29T15:01:52.935Z,98259.33
2023-03-29T15:04:20.624Z,98255.21
2023-03-29T15:06:50.145Z,98254.20
2023-03-29T15:09:27.738Z,98253.16
2023-03-29T15:11:57.279Z,98251.31
2023-03-29T15:14:27.968Z,98253.42
2023-03-29T15:17:04.437Z,98256.06
2023-03-29T15:19:32.293Z,98256.85
2023-03-29T15:22:10.589Z,98254.81
2023-03-29T15:24:44.324Z,98251.67
2023-03-29T15:27:19.391Z,98247.72
2023-03-29T15:29:48.494Z,98250.11
2023-03-29T15:32:24.241Z,98254.30
2023-03-29T15:35:15.892Z,98255.44
2023-03-29T15:37:43.108Z,98254.14
2023-03-29T15:40:16.356Z,98261.18
2023-03-29T15:42:43.630Z,98257.55
2023-03-29T15:45:16.208Z,98254.21
2023-03-29T15:47:43.646Z,98264.90
2023-03-29T15:50:10.986Z,98268.16
2023-03-29T15:52:38.059Z,98268.55
2023-03-29T15:55:05.326Z,98269.26
2023-03-29T15:57:32.339Z,98266.15
2023-03-29T16:00:00.437Z,98261.95
2023-03-29T16:02:27.947Z,98262.55
2023-03-29T16:04:55.995Z,98261.17
2023-03-29T16:07:22.884Z,98257.56
2023-03-29T16:09:50.163Z,98264.98
2023-03-29T16:12:17.179Z,98265.60
2023-03-29T16:14:44.503Z,98269.64
2023-03-29T16:17:12.490Z,98264.88
2023-03-29T16:19:39.353Z,98266.04
2023-03-29T16:22:06.830Z,98269.35
2023-03-29T16:24:35.010Z,98268.27
2023-03-29T16:27:03.170Z,98267.36
2023-03-29T16:29:30.111Z,98264.96
2023-03-29T16:31:57.356Z,98265.02
2023-03-29T16:34:25.077Z,98266.25
2023-03-29T16:36:53.962Z,98271.31
2023-03-29T16:39:21.861Z,98273.12
2023-03-29T16:41:49.556Z,98276.99
2023-03-29T16:44:20.687Z,98279.67
2023-03-29T16:46:50.970Z,98281.85
2023-03-29T16:49:17.739Z,98286.86
2023-03-29T16:51:46.357Z,98288.00
2023-03-29T16:54:14.161Z,98289.89
2023-03-29T16:56:46.992Z,98288.47
2023-03-29T16:59:14.672Z,98290.11
2023-03-29T17:01:41.961Z,98293.27
2023-03-29T17:04:11.138Z,98296.80
2023-03-29T17:06:38.106Z,98295.45
2023-03-29T17:09:05.519Z,98298.06
2023-03-29T17:11:32.908Z,98298.45
2023-03-29T17:13:59.737Z,98302.79
2023-03-29T17:16:28.156Z,98306.67
2023-03-29T17:18:55.916Z,98311.70
2023-03-29T17:21:23.003Z,98314.09
2023-03-29T17:23:49.947Z,98317.09
2023-03-29T17:26:16.856Z,98323.52
2023-03-29T17:28:43.698Z,98321.21
2023-03-29T17:31:10.891Z,98326.21
2023-03-29T17:33:38.396Z,98327.85
2023-03-29T17:36:06.062Z,98331.11
2023-03-29T17:38:34.425Z,98329.11
2023-03-29T17:41:03.966Z,98332.42
2023-03-29T17:43:32.117Z,98335.41
2023-03-29T17:46:00.278Z,98337.03
2023-03-29T17:48:50.077Z,98346.14
2023-03-29T17:51:23.118Z,98344.43
2023-03-29T17:53:52.351Z,98347.93
2023-03-29T17:56:19.967Z,98352.31
2023-03-29T17:58:48.603Z,98352.94
2023-03-29T18:01:38.481Z,98356.28
2023-03-29T18:04:07.106Z,98360.99
2023-03-29T18:06:34.306Z,98364.16
2023-03-29T18:09:03.810Z,98368.11
2023-03-29T18:11:35.800Z,98365.77
2023-03-29T18:14:25.043Z,98370.27
2023-03-29T18:17:14.600Z,98369.11
2023-03-29T18:20:08.601Z,98365.57
2023-03-29T18:22:36.038Z,98369.98
2023-03-29T18:25:23.337Z,98368.14
2023-03-29T18:27:54.246Z,98374.06
2023-03-29T18:30:23.498Z,98375.56
2023-03-29T18:32:50.825Z,98373.95
2023-03-29T18:35:19.280Z,98381.54
2023-03-29T18:37:47.232Z,98384.34
2023-03-29T18:40:21.992Z,98385.87
2023-03-29T18:42:49.922Z,98388.98
2023-03-29T18:45:17.622Z,98388.98
2023-03-29T18:47:44.906Z,98389.53
2023-03-29T18:50:12.759Z,98387.45
2023-03-29T18:52:43.393Z,98386.91
2023-03-29T18:55:12.176Z,98390.95
2023-03-29T18:57:49.122Z,98391.94
2023-03-29T19:00:17.118Z,98394.97
2023-03-29T19:02:44.575Z,98400.88
2023-03-29T19:05:14.519Z,98399.19
2023-03-29T19:07:41.915Z,98398.55
2023-03-29T19:10:10.017Z,98394.50
2023-03-29T19:12:39.625Z,98393.10
2023-03-29T19:15:08.303Z,98394.79
2023-03-29T19:17:35.518Z,98397.72
2023-03-29T19:20:06.096Z,98398.78
2023-03-29T19:22:33.499Z,98401.11
2023-03-29T19:25:01.295Z,98400.33
2023-03-29T19:27:28.568Z,98403.11
2023-03-29T19:29:55.801Z,98404.45
2023-03-29T19:32:22.855Z,98410.00
2023-03-29T19:34:50.510Z,98416.14
2023-03-29T19:37:18.961Z,98415.94
2023-03-29T19:39:56.591Z,98413.84
2023-03-29T19:42:23.896Z,98413.09
2023-03-29T19:44:52.393Z,98410.17
2023-03-29T19:47:19.404Z,98406.00
2023-03-29T19:49:46.469Z,98403.92
2023-03-29T19:52:14.143Z,98401.54
2023-03-29T19:54:41.923Z,98396.92
2023-03-29T19:57:11.863Z,98392.66
2023-03-29T19:59:40.519Z,98390.31
2023-03-29T20:02:12.466Z,98393.80
2023-03-29T20:04:40.398Z,98390.36
2023-03-29T20:07:12.986Z,98391.06
2023-03-29T20:09:44.623Z,98394.61
2023-03-29T20:12:19.999Z,98399.27
2023-03-29T20:14:47.081Z,98395.58
2023-03-29T20:17:14.176Z,98397.91
2023-03-29T20:19:45.008Z,98404.38
2023-03-29T20:22:12.523Z,98405.17
2023-03-29T20:24:40.212Z,98403.62
2023-03-29T20:27:09.270Z,98399.79
2023-03-29T20:29:38.668Z,98397.84
2023-03-29T20:32:05.877Z,98400.80
2023-03-29T20:34:38.689Z,98400.14
2023-03-29T20:37:12.264Z,98394.66
2023-03-29T20:39:53.836Z,98390.82
2023-03-29T20:42:23.898Z,98390.05
2023-03-29T20:44:53.233Z,98387.92
2023-03-29T20:47:22.867Z,98391.67
2023-03-29T20:49:59.924Z,98385.80
2023-03-29T20:52:28.217Z,98381.49
2023-03-29T20:54:57.605Z,98382.52
2023-03-29T20:57:25.433Z,98384.96
2023-03-29T20:59:53.190Z,98385.27
2023-03-29T21:02:26.154Z,98386.80
2023-03-29T21:04:53.523Z,98385.74
2023-03-29T21:07:26.080Z,98387.83
2023-03-29T21:09:53.672Z,98385.94
2023-03-29T21:12:23.769Z,98391.23
2023-03-29T21:14:51.663Z,98389.11
2023-03-29T21:17:19.181Z,98387.84
2023-03-29T21:19:46.258Z,98385.43
2023-03-29T21:22:14.000Z,98383.09
2023-03-29T21:24:41.714Z,98388.29
2023-03-29T21:27:09.434Z,98394.09
2023-03-29T21:29:38.297Z,98395.21
2023-03-29T21:32:07.955Z,98394.23
2023-03-29T21:34:35.273Z,98399.53
2023-03-29T21:37:03.325Z,98402.42
2023-03-29T21:39:31.405Z,98407.07
2023-03-29T21:41:59.805Z,98406.89
2023-03-29T21:44:28.186Z,98409.57
2023-03-29T21:46:57.027Z,98409.35
2023-03-29T21:49:24.145Z,98403.77
2023-03-29T21:51:52.259Z,98403.69
2023-03-29T21:54:21.079Z,98397.48
2023-03-29T21:56:49.473Z,98394.36
2023-03-29T21:59:17.452Z,98394.17
2023-03-29T22:01:45.402Z,98395.52
2023-03-29T22:04:22.789Z,98397.27
2023-03-29T22:07:03.190Z,98400.69
2023-03-29T22:09:34.336Z,98406.20
2023-03-29T22:12:03.064Z,98408.70
2023-03-29T22:14:51.041Z,98407.66
2023-03-29T22:17:19.171Z,98408.56
2023-03-29T22:19:49.103Z,98409.30
2023-03-29T22:22:26.530Z,98406.67
2023-03-29T22:25:03.565Z,98406.19
2023-03-29T22:27:32.180Z,98404.98
2023-03-29T22:30:01.133Z,98404.95
2023-03-29T22:32:30.529Z,98399.14
2023-03-29T22:35:10.588Z,98403.13
2023-03-29T22:37:45.835Z,98406.21
2023-03-29T22:40:13.547Z,98405.35
2023-03-29T22:43:05.355Z,98406.00
2023-03-29T22:45:36.465Z,98401.55
2023-03-29T22:48:08.820Z,98406.61
2023-03-29T22:50:59.166Z,98408.41
2023-03-29T22:53:39.406Z,98407.83
2023-03-29T22:56:08.608Z,98407.90
2023-03-29T22:58:39.233Z,98407.73
2023-03-29T23:01:08.284Z,98399.20
2023-03-29T23:03:40.594Z,98399.44
2023-03-29T23:06:24.977Z,98398.20
2023-03-29T23:08:57.733Z,98406.48
2023-03-29T23:11:44.131Z,98412.09
2023-03-29T23:14:22.324Z,98410.23
2023-03-29T23:16:49.893Z,98408.77
2023-03-29T23:19:23.412Z,98413.45
2023-03-29T23:21:52.392Z,98412.55
2023-03-29T23:24:21.832Z,98412.10
2023-03-29T23:26:50.297Z,98408.80
2023-03-29T23:29:41.839Z,98407.98
2023-03-29T23:32:33.326Z,98406.38
2023-03-29T23:35:21.109Z,98405.64
2023-03-29T23:38:11.242Z,98405.70
2023-03-29T23:41:12.611Z,98408.62
2023-03-29T23:44:03.029Z,98409.16
2023-03-29T23:46:33.466Z,98409.16
2023-03-29T23:49:20.184Z,98412.52
2023-03-29T23:51:49.894Z,98410.58
2023-03-29T23:54:17.305Z,98410.90
2023-03-29T23:57:00.697Z,98411.28
2023-03-29T23:59:52.984Z,98410.55
